createdAt,value
2023-01-21T01:21:47.897Z,0.71
2023-01-21T01:24:48.927Z,0.72
2023-01-21T01:27:49.991Z,0.69
2023-01-21T01:30:51.999Z,0.68
2023-01-21T01:33:52.791Z,0.65
2023-01-21T01:36:54.875Z,0.65
2023-01-21T01:39:55.839Z,0.64
2023-01-21T01:42:56.843Z,0.63
2023-01-21T01:45:58.834Z,0.61
2023-01-21T01:49:02.813Z,0.60
2023-01-21T01:52:06.991Z,0.60
2023-01-21T01:55:08.869Z,0.57
2023-01-21T01:58:09.838Z,0.56
2023-01-21T02:01:11.017Z,0.58
2023-01-21T02:04:11.827Z,0.62
2023-01-21T02:07:12.865Z,0.62
2023-01-21T02:10:06.919Z,0.61
2023-01-21T02:12:55.872Z,0.61
2023-01-21T02:16:05.969Z,0.60
2023-01-21T02:19:14.901Z,0.56
2023-01-21T02:22:41.911Z,0.52
2023-01-21T02:25:48.979Z,0.52
2023-01-21T02:29:14.979Z,0.54
2023-01-21T02:32:33.010Z,0.57
2023-01-21T02:35:36.919Z,0.55
2023-01-21T02:38:47.899Z,0.54
2023-01-21T02:42:00.972Z,0.53
2023-01-21T02:45:13.983Z,0.56
2023-01-21T02:48:27.964Z,0.57
2023-01-21T02:51:33.008Z,0.56
2023-01-21T02:54:44.955Z,0.56
2023-01-21T02:57:35.965Z,0.57
2023-01-21T03:00:46.085Z,0.57
2023-01-21T03:03:52.032Z,0.56
2023-01-21T03:07:12.950Z,0.56
2023-01-21T03:10:23.966Z,0.53
2023-01-21T03:14:13.025Z,0.54
2023-01-21T03:17:19.037Z,0.54
2023-01-21T03:20:35.017Z,0.52
2023-01-21T03:23:49.990Z,0.52
2023-01-21T03:26:54.040Z,0.48
2023-01-21T03:29:55.001Z,0.46
2023-01-21T03:32:58.034Z,0.45
2023-01-21T03:35:58.997Z,0.47
2023-01-21T03:39:01.996Z,0.49
2023-01-21T03:42:03.017Z,0.44
2023-01-21T03:45:04.030Z,0.41
2023-01-21T03:48:07.212Z,0.35
2023-01-21T03:51:15.101Z,0.35
2023-01-21T03:54:16.068Z,0.36
2023-01-21T03:57:10.086Z,0.38
2023-01-21T03:59:50.255Z,0.42
2023-01-21T04:02:37.079Z,0.44
2023-01-21T04:05:24.171Z,0.46
2023-01-21T04:08:25.074Z,0.47
2023-01-21T04:11:26.033Z,0.47
2023-01-21T04:14:28.093Z,0.44
2023-01-21T04:17:29.081Z,0.43
2023-01-21T04:20:30.248Z,0.40
2023-01-21T04:23:33.491Z,0.42
2023-01-21T04:26:34.143Z,0.45
2023-01-21T04:29:35.118Z,0.44
2023-01-21T04:32:36.127Z,0.46
2023-01-21T04:35:37.121Z,0.46
2023-01-21T04:38:39.109Z,0.44
2023-01-21T04:41:41.162Z,0.41
2023-01-21T04:44:43.134Z,0.40
2023-01-21T04:47:44.127Z,0.42
2023-01-21T04:50:45.238Z,0.39
2023-01-21T04:53:46.175Z,0.36
2023-01-21T04:56:47.138Z,0.35
2023-01-21T04:59:48.605Z,0.35
2023-01-21T05:02:49.157Z,0.33
2023-01-21T05:05:50.160Z,0.30
2023-01-21T05:08:51.296Z,0.27
2023-01-21T05:11:52.179Z,0.29
2023-01-21T05:14:53.482Z,0.27
2023-01-21T05:17:54.288Z,0.26
2023-01-21T05:20:55.180Z,0.25
2023-01-21T05:23:56.201Z,0.27
2023-01-21T05:26:57.199Z,0.30
2023-01-21T05:29:58.387Z,0.33
2023-01-21T05:33:05.426Z,0.32
2023-01-21T05:36:13.200Z,0.32
2023-01-21T05:39:14.250Z,0.29
2023-01-21T05:42:15.221Z,0.30
2023-01-21T05:45:16.239Z,0.32
2023-01-21T05:48:17.246Z,0.35
2023-01-21T05:51:11.378Z,0.32
2023-01-21T05:53:58.238Z,0.29
2023-01-21T05:56:52.334Z,0.27
2023-01-21T05:59:54.274Z,0.28
2023-01-21T06:02:55.228Z,0.24
2023-01-21T06:05:57.312Z,0.23
2023-01-21T06:08:58.251Z,0.26
2023-01-21T06:12:00.238Z,0.27
2023-01-21T06:15:01.257Z,0.28
2023-01-21T06:18:02.303Z,0.30
2023-01-21T06:21:03.274Z,0.27
2023-01-21T06:24:04.352Z,0.23
2023-01-21T06:27:06.387Z,0.20
2023-01-21T06:30:07.288Z,0.22
2023-01-21T06:33:10.406Z,0.26
2023-01-21T06:36:11.341Z,0.30
2023-01-21T06:39:12.384Z,0.32
2023-01-21T06:42:13.363Z,0.31
2023-01-21T06:45:14.372Z,0.30
2023-01-21T06:48:15.389Z,0.34
2023-01-21T06:51:16.383Z,0.35
2023-01-21T06:54:17.320Z,0.35
2023-01-21T06:57:18.349Z,0.36
2023-01-21T07:00:21.360Z,0.42
2023-01-21T07:03:22.439Z,0.47
2023-01-21T07:06:23.385Z,0.47
2023-01-21T07:09:24.399Z,0.42
2023-01-21T07:12:25.375Z,0.44
2023-01-21T07:15:31.566Z,0.44
2023-01-21T07:18:32.420Z,0.43
2023-01-21T07:21:33.550Z,0.44
2023-01-21T07:24:37.387Z,0.45
2023-01-21T07:27:38.367Z,0.47
2023-01-21T10:30:03.236Z,0.87
2023-01-21T10:33:05.033Z,1.06
2023-01-21T10:36:28.827Z,1.11
2023-01-21T10:39:53.030Z,1.17
2023-01-21T10:43:02.183Z,1.22
2023-01-21T10:46:05.122Z,1.21
2023-01-21T10:49:12.014Z,1.18
2023-01-21T10:52:31.562Z,1.12
2023-01-21T10:55:46.993Z,1.10
2023-01-21T10:58:59.014Z,1.14
2023-01-21T11:02:03.077Z,1.20
2023-01-21T11:05:04.047Z,1.28
2023-01-21T11:08:08.547Z,1.31
2023-01-21T11:11:10.075Z,1.25
2023-01-21T11:14:10.117Z,1.21
2023-01-21T11:17:12.261Z,1.18
2023-01-21T11:20:13.068Z,1.15
2023-01-21T11:23:16.112Z,1.14
2023-01-21T11:26:19.111Z,1.17
2023-01-21T11:29:31.139Z,1.19
2023-01-21T11:32:36.095Z,1.15
2023-01-21T11:35:39.105Z,1.02
2023-01-21T11:38:47.557Z,0.89
2023-01-21T11:41:49.090Z,0.85
2023-01-21T11:44:49.143Z,0.80
2023-01-21T11:48:01.357Z,0.72
2023-01-21T11:51:03.152Z,0.72
2023-01-21T11:54:24.151Z,0.68
2023-01-21T11:57:34.152Z,0.67
2023-01-21T12:00:39.207Z,0.68
2023-01-21T12:03:43.254Z,0.66
2023-01-21T12:06:47.176Z,0.67
2023-01-21T12:09:47.264Z,0.64
2023-01-21T12:12:57.215Z,0.57
2023-01-21T12:16:02.278Z,0.53
2023-01-21T12:19:04.166Z,0.53
2023-01-21T12:22:12.208Z,0.54
2023-01-21T12:25:49.213Z,0.53
2023-01-21T12:29:01.217Z,0.45
2023-01-21T12:32:07.178Z,0.42
2023-01-21T12:35:14.170Z,0.41
2023-01-21T12:38:26.854Z,0.42
2023-01-21T12:41:30.217Z,0.37
2023-01-21T12:44:42.242Z,0.36
2023-01-21T12:48:00.211Z,0.34
2023-01-21T12:51:06.294Z,0.34
2023-01-21T12:54:58.267Z,0.27
2023-01-21T12:58:07.252Z,0.23
2023-01-21T13:01:07.289Z,0.26
2023-01-21T13:04:31.222Z,0.29
2023-01-21T13:07:49.226Z,0.30
2023-01-21T13:11:00.258Z,0.25
2023-01-21T13:14:34.399Z,0.20
2023-01-21T13:17:38.388Z,0.24
2023-01-21T13:20:38.238Z,0.27
2023-01-21T13:23:47.255Z,0.30
2023-01-21T13:26:55.550Z,0.31
2023-01-21T13:30:26.322Z,0.33
2023-01-21T13:33:47.313Z,0.31
2023-01-21T13:36:56.364Z,0.28
2023-01-21T13:40:06.280Z,0.25
2023-01-21T13:43:15.328Z,0.24
2023-01-21T13:46:48.329Z,0.28
2023-01-21T13:50:25.331Z,0.28
2023-01-21T13:53:32.332Z,0.25
2023-01-21T13:56:36.523Z,0.22
2023-01-21T13:59:46.350Z,0.17
2023-01-21T14:02:54.316Z,0.14
2023-01-21T14:06:14.346Z,0.14
2023-01-21T14:09:24.646Z,0.14
2023-01-21T14:12:35.381Z,0.15
2023-01-21T14:15:44.361Z,0.14
2023-01-21T14:19:08.457Z,0.16
2023-01-21T14:22:31.446Z,0.16
2023-01-21T14:25:32.400Z,0.20
2023-01-21T14:28:45.453Z,0.23
2023-01-21T14:31:57.466Z,0.27
2023-01-21T14:35:25.788Z,0.30
2023-01-21T14:38:40.458Z,0.30
2023-01-21T14:42:34.241Z,0.29
2023-01-21T14:45:38.416Z,0.26
2023-01-21T14:48:56.465Z,0.25
2023-01-21T14:52:02.518Z,0.26
2023-01-21T14:55:03.425Z,0.26
2023-01-21T14:58:03.421Z,0.27
2023-01-21T15:01:05.470Z,0.28
2023-01-21T15:04:05.643Z,0.27
2023-01-21T15:07:16.269Z,0.27
2023-01-21T15:10:32.473Z,0.27
2023-01-21T15:13:39.591Z,0.27
2023-01-21T15:16:40.632Z,0.28
2023-01-21T15:19:48.483Z,0.27
2023-01-21T15:22:54.490Z,0.27
2023-01-21T15:26:15.631Z,0.32
2023-01-21T15:29:47.760Z,0.34
2023-01-21T15:32:48.469Z,0.32
2023-01-21T15:35:53.468Z,0.29
2023-01-21T15:38:54.643Z,0.28
2023-01-21T15:42:20.560Z,0.26
2023-01-21T15:45:34.783Z,0.26
2023-01-21T15:48:54.508Z,0.28
2023-01-21T15:52:32.561Z,0.30
2023-01-21T15:55:50.530Z,0.31
2023-01-21T15:59:18.532Z,0.34
2023-01-21T16:02:40.274Z,0.34
2023-01-21T16:05:43.544Z,0.34
2023-01-21T16:08:48.523Z,0.38
2023-01-21T16:11:56.241Z,0.45
2023-01-21T16:15:08.674Z,0.46
2023-01-21T16:18:44.143Z,0.45
2023-01-21T16:21:49.585Z,0.39
2023-01-21T16:24:56.749Z,0.34
2023-01-21T16:27:58.584Z,0.33
2023-01-21T16:31:12.222Z,0.37
2023-01-21T16:34:16.617Z,0.40
2023-01-21T16:37:23.864Z,0.37
2023-01-21T16:40:25.708Z,0.37
2023-01-21T16:43:37.581Z,0.38
2023-01-21T16:46:44.706Z,0.43
2023-01-21T16:50:06.591Z,0.42
2023-01-21T16:53:32.884Z,0.42
2023-01-21T16:56:42.932Z,0.44
2023-01-21T16:59:59.900Z,0.48
2023-01-21T17:03:02.687Z,0.52
2023-01-21T17:05:56.321Z,0.53
2023-01-21T17:09:00.719Z,0.53
2023-01-21T17:12:02.647Z,0.55
2023-01-21T17:15:10.715Z,0.55
2023-01-21T17:18:12.138Z,0.52
2023-01-21T17:21:15.739Z,0.53
2023-01-21T17:24:32.722Z,0.56
2023-01-21T17:27:32.784Z,0.58
2023-01-21T17:30:44.755Z,0.61
2023-01-21T17:33:46.338Z,0.66
2023-01-21T17:36:53.205Z,0.70
2023-01-21T17:40:05.477Z,0.72
2023-01-21T17:43:15.484Z,0.70
2023-01-21T17:46:18.772Z,0.69
2023-01-21T17:49:20.451Z,0.66
2023-01-21T17:52:32.084Z,0.64
2023-01-21T17:55:49.796Z,0.66
2023-01-21T17:59:01.904Z,0.68
2023-01-21T18:02:07.838Z,0.66
2023-01-21T18:05:10.282Z,0.67
2023-01-21T18:08:10.705Z,0.73
2023-01-21T18:11:12.232Z,0.76
2023-01-21T18:14:12.819Z,0.74
2023-01-21T18:17:12.841Z,0.76
2023-01-21T18:20:12.793Z,0.82
2023-01-21T18:23:12.807Z,0.86
2023-01-21T18:26:13.020Z,0.89
2023-01-21T18:29:15.124Z,0.93
2023-01-21T18:32:15.952Z,0.95
2023-01-21T18:35:20.204Z,0.95
2023-01-21T18:38:33.869Z,0.97
2023-01-21T18:41:33.809Z,1.03
2023-01-21T18:44:33.827Z,1.10
2023-01-21T18:47:45.842Z,1.15
2023-01-21T18:50:46.867Z,1.17
2023-01-21T18:53:47.954Z,1.18
2023-01-21T18:56:50.164Z,1.20
2023-01-21T18:59:50.873Z,1.23
2023-01-21T19:02:50.842Z,1.26
2023-01-21T19:05:53.846Z,1.26
2023-01-21T19:08:54.840Z,1.27
2023-01-21T19:11:58.207Z,1.28
2023-01-21T19:15:02.006Z,1.28
2023-01-21T19:18:06.404Z,1.27
2023-01-21T19:21:07.340Z,1.28
2023-01-21T19:24:12.031Z,1.30
2023-01-21T19:27:13.861Z,1.37
2023-01-21T19:30:15.145Z,1.43
2023-01-21T19:33:18.963Z,1.43
2023-01-21T19:36:26.947Z,1.44
2023-01-21T19:39:32.294Z,1.46
2023-01-21T19:42:32.521Z,1.46
2023-01-21T19:45:33.937Z,1.44
2023-01-21T19:48:36.037Z,1.44
2023-01-21T19:51:35.951Z,1.44
2023-01-21T19:54:38.147Z,1.43
2023-01-21T19:57:39.943Z,1.44
2023-01-21T20:00:43.200Z,1.47
2023-01-21T20:07:04.149Z,1.46
2023-01-21T20:10:07.945Z,1.45
2023-01-21T20:13:13.011Z,1.45
2023-01-21T20:16:17.274Z,1.47
2023-01-21T20:19:17.922Z,1.48
2023-01-21T20:22:21.144Z,1.48
2023-01-21T20:25:31.042Z,1.48
2023-01-21T20:28:42.302Z,1.47
2023-01-21T20:31:42.996Z,1.45
2023-01-21T20:34:46.068Z,1.46
2023-01-21T20:37:49.014Z,1.46
2023-01-21T20:40:51.958Z,1.46
2023-01-21T20:43:55.050Z,1.47
2023-01-21T20:46:55.031Z,1.49
2023-01-21T20:49:56.075Z,1.54
2023-01-21T20:52:59.052Z,1.56
2023-01-21T20:56:02.019Z,1.60
2023-01-21T20:59:04.076Z,1.67
2023-01-21T21:02:04.266Z,1.73
2023-01-21T21:05:05.060Z,1.76
2023-01-21T21:08:06.041Z,1.72
2023-01-21T21:11:16.111Z,1.72
2023-01-21T21:14:18.192Z,1.75
2023-01-21T21:17:24.039Z,1.78
2023-01-21T21:20:35.123Z,1.84
2023-01-21T21:23:37.123Z,1.89
2023-01-21T21:26:41.601Z,1.92
2023-01-21T21:29:43.441Z,1.95
2023-01-21T21:32:43.048Z,1.97
2023-01-21T21:35:47.337Z,1.98
2023-01-21T21:38:47.091Z,1.99
2023-01-21T21:42:06.098Z,1.98
2023-01-21T21:45:06.156Z,1.94
2023-01-21T21:48:24.422Z,1.95
2023-01-21T21:51:25.171Z,1.95
2023-01-21T21:54:31.144Z,1.95
2023-01-21T21:57:31.267Z,1.95
2023-01-21T22:00:37.832Z,1.91
2023-01-21T22:03:44.114Z,1.95
2023-01-21T22:06:45.151Z,1.96
2023-01-21T22:09:48.149Z,1.91
2023-01-21T22:12:49.789Z,1.86
2023-01-21T22:15:51.357Z,1.83
2023-01-21T22:18:51.327Z,1.85
2023-01-21T22:21:52.438Z,1.88
2023-01-21T22:24:54.507Z,1.87
2023-01-21T22:27:56.371Z,1.87
2023-01-21T22:30:56.252Z,1.84
2023-01-21T22:33:56.225Z,1.74
2023-01-21T22:36:56.401Z,1.65
2023-01-21T22:39:58.436Z,1.66
2023-01-21T22:42:58.276Z,1.69
2023-01-21T22:46:00.264Z,1.75
2023-01-21T22:49:00.207Z,1.79
2023-01-21T22:52:01.230Z,1.80
2023-01-21T22:55:02.268Z,1.82
2023-01-21T22:58:02.235Z,1.87
2023-01-21T23:01:03.317Z,1.89
2023-01-21T23:04:03.478Z,1.89
2023-01-21T23:07:04.256Z,1.88
2023-01-21T23:10:05.260Z,1.91
2023-01-21T23:13:05.275Z,1.96
2023-01-21T23:16:05.274Z,1.96
2023-01-21T23:19:05.256Z,1.98
2023-01-21T23:22:07.837Z,2.02
2023-01-21T23:25:08.313Z,2.06
2023-01-21T23:28:08.252Z,2.08
2023-01-21T23:31:10.913Z,2.12
2023-01-21T23:34:13.255Z,2.15
2023-01-21T23:37:13.289Z,2.14
2023-01-21T23:40:13.469Z,2.09
2023-01-21T23:43:16.307Z,2.09
2023-01-21T23:46:29.902Z,2.08
2023-01-21T23:49:31.296Z,2.09
2023-01-21T23:52:31.341Z,2.10
2023-01-21T23:55:31.314Z,2.10
2023-01-21T23:58:32.378Z,2.07
